Meteo Giornale » Osservazioni meteo Stati Uniti (USA) » Cherry Point
ore: 13:55 - Osservazioni Meteo Cherry Point
Lat. 34° 53' N Lon. 76° 52' W Alt. 8 metri s.l.m.
31 °C
Nuvoloso
Temp. 24 Ore
22 °C
31 °C
Nord
0 Km/h
Dew point 23 °C
Umidità 62 %
Visibilità 10 Km
Il sole sorge alle ore 06:39
Il sole tramonta alle ore 19:35
| Data e Ora | Cielo e Fenomeni | T °C | DP °C | Um. % | Pres. hPa | Vis. km | Vento km/h | |
|---|---|---|---|---|---|---|---|---|
| Oggi h: 13:55 | Nuvoloso | 31 | 23 | 62 | 1019 | 10 | N 0 | |
| Oggi h: 12:55 | Nuvoloso | 31 | 22 | 58 | 1020 | 10 | E/SE 9.3 | |
| Oggi h: 11:55 | Nuvoloso | 29 | 22 | 66 | 1020 | 10 | N 5.5 | |
| Oggi h: 10:55 | Sereno | 28 | 23 | 74 | 1020 | 10 | N/NE 7.4 | |
| Oggi h: 09:55 | Sereno | 27 | 23 | 78 | 1020 | 10 | N/NO 11.1 | |
| Oggi h: 08:55 | Molto Nuvoloso | 25 | 24 | 94 | 1020 | 10 | N 5.5 | |
| Oggi h: 08:41 | Molto Nuvoloso | 25 | 24 | 94 | 1020 | 10 | N 5.5 | |
| Oggi h: 07:55 | Nuvoloso | 24 | 23 | 94 | 1020 | 10 | N 0 | |
| Oggi h: 07:18 | Foschia | 23 | 23 | 100 | 1020 | 5 | N 0 | |
| Oggi h: 07:13 | Foschia | 23 | 23 | 100 | 1020 | 2 | N 0 | |
| Oggi h: 07:02 | Nebbia | 23 | 23 | 100 | 1020 | 2 | N 5.5 | |
| Oggi h: 06:55 | Foschia | 23 | 23 | 100 | 1019 | 2 | N 0 | |
| Oggi h: 05:55 | Sereno | 23 | 23 | 100 | 1019 | 10 | N 7.4 | |
| Oggi h: 04:55 | Sereno | 23 | 23 | 100 | 1019 | 10 | N/NO 7.4 | |
| Oggi h: 04:06 | Nuvoloso | 23 | 23 | 100 | 1019 | 10 | N/NO 9.3 | |
| Oggi h: 04:00 | Foschia | 23 | 23 | 100 | 1019 | 2 | N/NO 7.4 | |
| Oggi h: 03:55 | Foschia | 23 | 23 | 100 | 1019 | 5 | N 5.5 | |
| Oggi h: 03:51 | Nebbia | 23 | 22 | 94 | 1019 | 2 | N 0 | |
| Oggi h: 03:44 | Foschia | 23 | 22 | 94 | 1019 | 5 | N 0 | |
| Oggi h: 03:36 | Nebbia | 23 | 22 | 94 | 1019 | 2 | N 0 | |
| Oggi h: 03:25 | Nebbia | 23 | 22 | 94 | 1019 | 2 | N 0 | |
| Oggi h: 03:19 | Foschia | 23 | 22 | 94 | 1019 | 5 | N 0 | |
| Oggi h: 03:00 | Foschia | 23 | 23 | 100 | 1019 | 2 | N 0 | |
| Oggi h: 02:55 | Foschia | 23 | 22 | 94 | 1019 | 5 | N 0 | |
| Oggi h: 02:45 | Nebbia | 23 | 23 | 100 | 1019 | 2 | N 0 | |
| Oggi h: 02:37 | Foschia | 23 | 22 | 94 | 1019 | 2 | N 0 | |
| Oggi h: 02:29 | Foschia | 23 | 23 | 100 | 1020 | 5 | N 0 | |
| Oggi h: 02:25 | Foschia | 23 | 23 | 100 | 1020 | 2 | N 0 | |
| Oggi h: 02:18 | Foschia | 23 | 22 | 94 | 1020 | 8 | N 0 | |
| Oggi h: 02:10 | Foschia | 23 | 22 | 94 | 1020 | 3 | N 0 | |
| Oggi h: 01:59 | Foschia | 22 | 22 | 100 | 1020 | 2 | N 0 | |
| Oggi h: 01:55 | Foschia | 22 | 22 | 100 | 1020 | 2 | N 0 | |
| Oggi h: 01:45 | Foschia | 23 | 22 | 94 | 1020 | 5 | N 5.5 | |
| Oggi h: 01:32 | Foschia | 23 | 23 | 100 | 1020 | 5 | N 0 | |
| Oggi h: 01:19 | Foschia | 23 | 23 | 100 | 1020 | 2 | N 0 | |
| Oggi h: 01:12 | Foschia | 23 | 23 | 100 | 1020 | 5 | N 0 | |
| Oggi h: 00:55 | Foschia | 23 | 23 | 100 | 1020 | 2 | N 0 | |
| Oggi h: 00:48 | Foschia | 23 | 23 | 100 | 1020 | 5 | N 5.5 | |
| Oggi h: 00:36 | Foschia | 23 | 23 | 100 | 1020 | 5 | N 0 | |
| Ieri h: 23:55 | Sereno | 24 | 23 | 94 | 1020 | 10 | N 0 | |
| Ieri h: 22:55 | Sereno | 23 | 23 | 100 | 1020 | 10 | N 0 | |
| Ieri h: 21:55 | Sereno | 23 | 23 | 100 | 1020 | 10 | N 0 | |
| Ieri h: 21:02 | Poco Nuvoloso | 23 | 23 | 100 | 1020 | 10 | N 0 | |
| Ieri h: 20:55 | Sereno | 24 | 23 | 94 | 1020 | 10 | E/SE 9.3 | |
| Ieri h: 19:55 | Nuvoloso | 24 | 23 | 94 | 1020 | 10 | N 0 | |
| Ieri h: 18:55 | Pioggia Foschia | 23 | 23 | 100 | 1020 | 10 | N 9.3 | |
| Ieri h: 17:59 | Pioggia Foschia | 24 | 23 | 94 | 1021 | 6 | NO 11.1 | |
| Ieri h: 17:55 | Temporale | 24 | 23 | 94 | 1021 | 11 | O/NO 11.1 | |
| Ieri h: 17:06 | Temporale Foschia | 23 | 22 | 94 | 1021 | 5 | O/NO 14.8 | |
| Ieri h: 17:00 | Temporale Foschia | 23 | 22 | 94 | 1021 | 5 | O/NO 13 | |
| Ieri h: 16:55 | Temporale Foschia | 23 | 22 | 94 | 1021 | 3 | O 14.8 | |
| Ieri h: 16:31 | Temporale Foschia | 23 | 22 | 94 | 1020 | 2 | S/SO 13 | |
| Ieri h: 16:24 | Temporale Nebbia | 23 | 22 | 94 | 1021 | 2 | S/SO 14.8 | |
| Ieri h: 16:15 | Temporale Foschia | 23 | 22 | 94 | 1020 | 5 | S 27.8 | |
| Ieri h: 16:08 | Temporale Foschia | 23 | 22 | 94 | 1021 | 2 | S 31.5 | |
| Ieri h: 16:02 | Temporale Foschia | 24 | 23 | 94 | 1021 | 3 | S 33.3 | |
| Ieri h: 15:55 | Temporale Foschia | 25 | 23 | 88 | 1021 | 2 | SE 22.2 | |
| Ieri h: 15:50 | Temporale Foschia | 26 | 23 | 83 | 1020 | 2 | E 20.3 | |
| Ieri h: 15:32 | Temporale | 28 | 24 | 78 | 1020 | 10 | S/SE 20.3 | |
| Ieri h: 14:55 | Coperto | 31 | 22 | 58 | 1020 | 10 | N/NE 9.3 | |



